Orto / Ocaso: 05:05 / 19:38 UTC (Datos para LEAX 08-07-2020)

[fuente: ADDS]

METAR:


LEMG 082130Z 15005KT 080V210 CAVOK 26/18 Q1015 NOSIG =
TAF LEMG 081700Z 0818/0918 14007KT CAVOK TX30/0913Z TN22/0905Z BECMG 0818/0821 VRB02KT PROB40 TEMPO 0900/0906 29006KT BECMG 0908/0910 13009KT LEGR 082130Z AUTO 25007KT 210V290 CAVOK 28/09 Q1016 =
TAF LEGR 082000Z 0821/0921 VRB03KT CAVOK TX36/0915Z TN17/0905Z BECMG 0912/0914 28010KT BECMG 0919/0921 VRB03KT LEZL 082130Z 21007KT 150V260 CAVOK 24/16 Q1014 NOSIG =
TAF LEZL 082000Z 0821/0921 21008KT CAVOK TX34/0915Z TN21/0905Z LEAM 082130Z AUTO VRB06G19KT 9999 VCTS -SHRA FEW040/// ///CB 27/19 Q1014 =
TAF AMD LEAM 082130Z 0821/0921 08016KT 9999 FEW020 TX31/0915Z TN23/0905Z BECMG 0821/0823 34010KT PROB30 TEMPO 0821/0823 4000 TS SHRA FEW050CB PROB40 TEMPO 0906/0910 VRB03KT BECMG 0910/0912 21010KT LEBA 082100Z AUTO 25006KT 210V280 CAVOK 28/08 Q1013 =
TAF LEBA 081700Z 0818/0903 23015KT CAVOK PROB30 TEMPO 0818/0820 24015G25KT BECMG 0822/0824 29005KT LEJR 082130Z 17004KT 140V210 CAVOK 20/18 Q1015 =
TAF LEJR 081700Z 0818/0918 19010KT CAVOK TX30/0914Z TN19/0904Z PROB40 TEMPO 0901/0909 BKN010 BECMG 0910/0913 25007KT GEML 082130Z AUTO 25012KT 200V290 CAVOK 26/20 Q1014 =
TAF GEML 082000Z 0821/0921 28010KT 9999 FEW025 TX28/0914Z TN23/0905Z PROB40 TEMPO 0822/0908 BKN005 BECMG 0908/0910 08007KT LXGB 082050Z AUTO 03005KT 9999 // NCD 25/21 Q1014 =
TAF LXGB 081351Z 0815/0823 08008KT 9999 FEW020 PROB30 0820/0823 7000 HZ

TAFOR:


TAF LEMG 081700Z 0818/0918 14007KT CAVOK TX30/0913Z TN22/0905Z BECMG 0818/0821 VRB02KT PROB40 TEMPO 0900/0906 29006KT BECMG 0908/0910 13009KT =
TAF LEGR 082000Z 0821/0921 VRB03KT CAVOK TX36/0915Z TN17/0905Z BECMG 0912/0914 28010KT BECMG 0919/0921 VRB03KT =
TAF LEZL 082000Z 0821/0921 21008KT CAVOK TX34/0915Z TN21/0905Z =
TAF AMD LEAM 082130Z 0821/0921 08016KT 9999 FEW020 TX31/0915Z TN23/0905Z BECMG 0821/0823 34010KT PROB30 TEMPO 0821/0823 4000 TS SHRA FEW050CB PROB40 TEMPO 0906/0910 VRB03KT BECMG 0910/0912 21010KT =
TAF LEBA 081700Z 0818/0903 23015KT CAVOK PROB30 TEMPO 0818/0820 24015G25KT BECMG 0822/0824 29005KT =
TAF LEJR 081700Z 0818/0918 19010KT CAVOK TX30/0914Z TN19/0904Z PROB40 TEMPO 0901/0909 BKN010 BECMG 0910/0913 25007KT =
TAF GEML 082000Z 0821/0921 28010KT 9999 FEW025 TX28/0914Z TN23/0905Z PROB40 TEMPO 0822/0908 BKN005 BECMG 0908/0910 08007KT =
TAF LXGB 081351Z 0815/0823 08008KT 9999 FEW020 PROB30 0820/0823 7000 HZ =

Recuerde que, aunque regularmente actualizada, la información meteorológica aquí presentada no debe ser utilizada para la planificación de vuelos. Si lo desea, puede consultar la información meteorológica adecuada, tanto de aeródromos como en ruta, por las vías oficialmente establecidas en la legislación -> AQUí

Utilizamos "cookies" propias y de terceros para analizar nuestros servicios, medir las audiencias, personalizar el contenido que ofrecemos y mostrar información adaptada a sus intereses mediante la obtención de los datos necesarios para perfilar sus hábitos de navegación e inferir grupos de interés, siempre de modo anónimo. Si continúa utilizando el sitio web AEROCLUBMALAGA.COM, significa que acepta sus términos y condiciones y el uso de "cookies" al utilizar el sitio web y nuestros servicios. Asimismo, podemos utilizar fuentes de datos externas para elaborar estos grupos de interés, así compartir los análisis de navegación y los grupos de interés inferidos con terceros con el objetivo de personalizar los contenidos. Para obtener más información sobre las cookies que utilizamos y cómo eliminarlas, consulte nuestra política de privacidad.

Acepto las cookies de esta página web.
EU Cookie Directive plugin by www.channeldigital.co.uk